ADDS METAR Data INFO
IDs: Format: Raw Decoded Include TAF

Data at: 1602 UTC 25 Apr 2018

KFTW 251553Z 35013G27KT 10SM SCT019 OVC046 14/09 A3019 RMK AO2 PK WND 33029/1539 SLP219 T01440094
KFTW 251519Z 33015G29KT 10SM BKN021 OVC049 14/09 A3020 RMK AO2 PK WND 33029/1515 T01440089
KFTW 251453Z 33016G24KT 10SM OVC048 14/09 A3018 RMK AO2 PK WND 34028/1354 RAE19 SLP214 P0000 60000 T01440094 51038
KFTW 251353Z 35017G25KT 10SM -RA FEW033 SCT048 14/10 A3014 RMK AO2 PK WND 33028/1258 RAB44 SLP201 P0000 T01440100
KFTW 251253Z 32018G26KT 10SM OVC070 17/12 A3011 RMK AO2 PK WND 31026/1249 SLP187 T01720122
KFTW 251153Z 34005KT 10SM OVC050 18/14 A3006 RMK AO2 SLP173 60000 70005 T01830139 10217 20178 53002
KFTW 251053Z 32004KT 10SM CLR 18/14 A3004 RMK AO2 SLP165 T01830139
KFTW 250953Z 04007KT 10SM CLR 19/13 A3004 RMK AO2 SLP165 T01940133
KFTW 250853Z 34003KT 10SM FEW060 19/13 A3006 RMK AO2 SLP170 60000 T01940133 55013
KFTW 250753Z 03004KT 10SM CLR 19/14 A3003 RMK AO2 SLP162 T01890139
KFTW 250653Z 13008KT 10SM CLR 21/14 A3004 RMK AO2 LTG DSNT SE RAE15 SLP165 P0000 T02060139
KFTW 250553Z 10004KT 10SM -RA BKN070 OVC100 22/14 A3010 RMK AO2 LTG DSNT N RAB22 SLP183 P0005 60005 T02170144 10283 20211 402940133 53018
KFTW 250526Z 00000KT 7SM RA OVC075 21/13 A3010 RMK AO2 LTG DSNT N AND NW RAB22 P0001 T02110128
KFTW 250511Z 00000KT 10SM VCTS BKN080 22/12 A3009 RMK AO2 T02220117
KFTW 250453Z 14005KT 10SM FEW085 22/12 A3007 RMK AO2 LTG DSNT NW SLP174 T02170117
KFTW 250353Z AUTO 08005KT 10SM CLR 24/11 A3005 RMK AO2 SLP168 T02390106
KFTW 250253Z 05005KT 10SM CLR 24/11 A3004 RMK AO2 SLP166 T02390111 53020
KFTW 250153Z 05007KT 10SM CLR 26/11 A3001 RMK AO2 SLP156 T02560111
KFTW 250053Z 10005KT 10SM CLR 27/11 A2999 RMK AO2 SLP147 T02670111
KFTW 242353Z 08006KT 10SM CLR 28/11 A2998 RMK AO2 SLP146 T02830106 10294 20267 58009
KFTW 242253Z 08004KT 10SM CLR 29/10 A3000 RMK AO2 SLP150 T02890100
KFTW 242153Z 02004KT 10SM CLR 29/09 A3000 RMK AO2 SLP153 T02940094
KFTW 242053Z 10SM CLR 29/10 A3001 RMK AO2 SLP156 T02890100 58024
KFTW 241953Z VRB03KT 10SM CLR 28/11 A3004 RMK AO2 SLP164 T02830111
KFTW 241853Z 11006KT 10SM CLR 27/12 A3006 RMK AO2 SLP173 T02720117
KFTW 241753Z 07006KT 10SM CLR 27/12 A3009 RMK AO2 SLP180 T02720122 10272 20139 58013
KFTW 241653Z 09006KT 10SM CLR 26/12 A3010 RMK AO2 SLP187 T02560122
KFTW 241553Z 13006KT 10SM CLR 24/12 A3012 RMK AO2 SLP194 T02390122
KFTW 241453Z 00000KT 10SM CLR 22/13 A3012 RMK AO2 SLP194 T02170128 52017
KFTW 241353Z 35003KT 10SM CLR 19/13 A3011 RMK AO2 SLP188 T01890133
KFTW 241253Z 01004KT 10SM CLR 16/12 A3009 RMK AO2 SLP184 T01610122
KFTW 241153Z 00000KT 10SM CLR 14/11 A3007 RMK AO2 SLP178 T01440111 10172 20133 53013
KFTW 241053Z 22003KT 10SM CLR 15/12 A3005 RMK AO2 SLP171 T01500117
KFTW 240953Z 27003KT 10SM CLR 14/12 A3005 RMK AO2 SLP169 T01440122
KFTW 240853Z 29003KT 10SM CLR 14/12 A3003 RMK AO2 SLP165 T01390122 55002
KFTW 240753Z VRB03KT 10SM CLR 16/11 A3002 RMK AO2 SLP160 T01560106
KFTW 240653Z 35005KT 10SM CLR 14/11 A3003 RMK AO2 SLP163 T01440111
KFTW 240553Z 00000KT 10SM CLR 16/12 A3004 RMK AO2 SLP167 T01560117 10244 20150 402560094 50005
KFTW 240453Z 00000KT 10SM CLR 18/12 A3004 RMK AO2 SLP168 T01780117